Time;durP1;ratioP1;P1;durP2;ratioP2;P2;SDS_P1;SDS_P2;PMS_P1;PMS_P2;Temp;Humidity;BMP_temperature;BMP_pressure;BME280_temperature;BME280_humidity;BME280_pressure;Samples;Min_cycle;Max_cycle;Signal;HPM_P1;HPM_P2
2022/11/29 00:01:28;;;;;;;50.95;12.23;;;7.10;99.90;;;;;;5107407;27;20122;-62
2022/11/29 00:03:57;;;;;;;133.38;17.67;;;7.10;99.90;;;;;;5112497;27;20035;-62
2022/11/29 00:06:29;;;;;;;86.88;16.17;;;7.10;99.90;;;;;;5093704;27;20031;-62
2022/11/29 00:08:57;;;;;;;93.47;16.38;;;7.00;99.90;;;;;;5110205;27;20486;-62
2022/11/29 00:14:15;;;;;;;73.75;15.50;;;7.00;99.90;;;;;;5123652;27;20052;-62
2022/11/29 00:16:41;;;;;;;105.60;18.55;;;7.00;99.90;;;;;;5124689;27;20625;-62
2022/11/29 00:19:08;;;;;;;67.28;15.38;;;7.00;99.90;;;;;;5104907;27;20399;-62
2022/11/29 00:21:34;;;;;;;101.70;16.70;;;7.00;99.90;;;;;;5115397;27;20032;-62
2022/11/29 00:24:00;;;;;;;157.10;22.50;;;7.00;99.90;;;;;;5108589;27;20043;-62
2022/11/29 00:26:26;;;;;;;24.98;11.52;;;7.00;99.90;;;;;;5109061;27;20139;-62
2022/11/29 00:28:52;;;;;;;135.02;19.30;;;7.00;99.90;;;;;;5113105;27;20108;-62
2022/11/29 00:31:30;;;;;;;71.68;15.32;;;7.00;99.90;;;;;;5107520;27;20031;-62
2022/11/29 00:33:57;;;;;;;48.70;12.13;;;7.00;99.90;;;;;;5120780;27;20114;-62
2022/11/29 00:36:23;;;;;;;61.78;16.15;;;7.00;99.90;;;;;;5113932;27;20135;-62
2022/11/29 00:38:48;;;;;;;107.43;17.55;;;7.00;99.90;;;;;;5108496;28;20494;-62
2022/11/29 00:41:15;;;;;;;63.10;15.63;;;7.00;99.90;;;;;;5118252;27;20039;-62
2022/11/29 00:43:41;;;;;;;52.15;12.73;;;7.00;99.90;;;;;;5105296;27;20035;-62
2022/11/29 00:46:08;;;;;;;132.30;17.00;;;7.00;99.90;;;;;;5098465;28;20093;-61
2022/11/29 00:48:35;;;;;;;54.10;12.63;;;7.00;99.90;;;;;;5121082;27;20039;-62
2022/11/29 00:51:01;;;;;;;83.80;15.25;;;6.90;99.90;;;;;;5117384;27;20092;-62
2022/11/29 00:53:27;;;;;;;71.10;13.57;;;6.90;99.90;;;;;;5121968;27;21262;-62
2022/11/29 00:55:53;;;;;;;76.53;14.63;;;6.90;99.90;;;;;;5119494;27;20035;-62
2022/11/29 00:58:20;;;;;;;74.80;14.10;;;6.90;99.90;;;;;;5127828;27;20043;-62
2022/11/29 01:00:46;;;;;;;50.58;13.07;;;6.90;99.90;;;;;;5126851;27;20518;-62
2022/11/29 01:03:13;;;;;;;43.38;11.60;;;6.90;99.90;;;;;;5118475;27;20512;-63
2022/11/29 01:05:41;;;;;;;61.25;14.25;;;;;;;;;;5112205;27;20392;-62
2022/11/29 01:08:07;;;;;;;20.33;11.13;;;6.80;99.90;;;;;;5122154;27;20042;-62
2022/11/29 01:10:34;;;;;;;15.70;9.82;;;6.80;99.90;;;;;;5125746;27;20031;-62
2022/11/29 01:12:59;;;;;;;27.02;11.05;;;6.90;99.90;;;;;;5097249;28;20243;-62
2022/11/29 01:15:26;;;;;;;44.72;12.05;;;6.80;99.90;;;;;;5124602;27;20042;-62
2022/11/29 01:17:52;;;;;;;24.20;10.75;;;6.80;99.90;;;;;;5110369;27;20047;-61
2022/11/29 01:20:18;;;;;;;34.13;12.45;;;6.80;99.90;;;;;;5112166;27;20032;-62
2022/11/29 01:22:44;;;;;;;46.88;11.60;;;6.90;99.90;;;;;;5102364;27;20484;-62
2022/11/29 01:25:11;;;;;;;30.35;10.93;;;6.90;99.90;;;;;;5097285;27;20100;-62
2022/11/29 01:27:38;;;;;;;56.40;13.23;;;6.80;99.90;;;;;;5107106;27;20062;-62
2022/11/29 01:30:05;;;;;;;24.17;10.20;;;6.80;99.90;;;;;;5123905;27;20050;-62
2022/11/29 01:32:31;;;;;;;18.38;10.20;;;6.80;99.90;;;;;;5123082;27;20490;-62
2022/11/29 01:34:57;;;;;;;41.80;12.02;;;6.80;99.90;;;;;;5109703;27;20065;-64
2022/11/29 01:37:23;;;;;;;51.97;13.32;;;6.80;99.90;;;;;;5125518;27;20027;-62
2022/11/29 01:39:49;;;;;;;57.15;12.35;;;6.80;99.90;;;;;;5118303;27;20043;-63
2022/11/29 01:42:15;;;;;;;46.60;10.98;;;6.70;99.90;;;;;;5124418;27;20243;-62
2022/11/29 01:44:44;;;;;;;12.27;8.75;;;6.80;99.90;;;;;;5126109;27;20549;-62
2022/11/29 01:47:11;;;;;;;36.55;11.55;;;6.70;99.90;;;;;;5079957;27;20039;-62
2022/11/29 01:49:55;;;;;;;22.05;9.95;;;6.70;99.90;;;;;;5111159;27;20281;-63
2022/11/29 01:52:25;;;;;;;23.33;11.40;;;;;;;;;;5121526;27;20295;-62
2022/11/29 01:54:54;;;;;;;18.92;9.13;;;;;;;;;;5109546;27;20047;-62
2022/11/29 01:57:20;;;;;;;17.42;9.25;;;;;;;;;;5127067;27;20075;-62
2022/11/29 01:59:49;;;;;;;39.47;11.85;;;;;;;;;;5120546;27;20036;-62
2022/11/29 02:02:17;;;;;;;16.58;9.05;;;;;;;;;;5099661;27;20104;-62
2022/11/29 02:04:45;;;;;;;18.05;8.82;;;;;;;;;;5126416;27;20050;-62
2022/11/29 02:07:11;;;;;;;11.57;8.38;;;;;;;;;;5093666;27;20077;-62
2022/11/29 02:09:37;;;;;;;10.75;7.78;;;;;;;;;;5126388;27;20092;-62
2022/11/29 02:12:22;;;;;;;11.05;8.35;;;;;;;;;;5114043;27;20047;-63
2022/11/29 02:14:48;;;;;;;16.38;10.18;;;;;;;;;;5113241;27;20032;-62
2022/11/29 02:17:23;;;;;;;14.68;8.82;;;;;;;;;;5112739;27;20282;-62
2022/11/29 02:20:10;;;;;;;13.80;8.45;;;;;;;;;;5114177;27;20463;-62
2022/11/29 02:22:39;;;;;;;15.68;9.27;;;;;;;;;;5107297;27;20457;-62
2022/11/29 02:25:24;;;;;;;12.15;8.27;;;;;;;;;;5120887;27;20458;-62
2022/11/29 02:28:05;;;;;;;12.32;8.55;;;;;;;;;;5115855;27;20051;-62
2022/11/29 02:30:41;;;;;;;14.02;9.10;;;;;;;;;;5101513;27;20070;-62
2022/11/29 02:33:07;;;;;;;13.50;7.88;;;;;;;;;;5119548;27;20032;-62
2022/11/29 02:35:48;;;;;;;11.13;7.85;;;;;;;;;;5115537;28;20027;-62
2022/11/29 02:38:20;;;;;;;29.60;9.98;;;;;;;;;;5121234;27;20039;-61
2022/11/29 02:41:04;;;;;;;32.97;10.00;;;;;;;;;;5117744;27;20122;-62
2022/11/29 02:43:33;;;;;;;14.35;8.57;;;;;;;;;;5123834;27;20057;-62
2022/11/29 02:45:59;;;;;;;14.85;8.98;;;;;;;;;;5110487;27;20080;-62
2022/11/29 02:48:32;;;;;;;18.33;9.55;;;;;;;;;;5114741;28;20038;-62
2022/11/29 02:51:03;;;;;;;29.88;10.23;;;;;;;;;;5117692;28;20035;-62
2022/11/29 02:53:30;;;;;;;14.52;7.90;;;;;;;;;;5098425;28;20071;-62
2022/11/29 02:56:14;;;;;;;25.45;10.77;;;;;;;;;;5116258;28;20403;-62
2022/11/29 02:58:40;;;;;;;23.50;9.02;;;6.70;99.90;;;;;;5120367;27;20035;-62
2022/11/29 03:01:14;;;;;;;13.30;8.73;;;6.40;99.90;;;;;;5115127;28;20039;-62
2022/11/29 03:03:46;;;;;;;55.78;10.63;;;;;;;;;;5118005;28;20382;-62
2022/11/29 03:06:22;;;;;;;34.77;11.13;;;;;;;;;;5095122;28;20131;-62
2022/11/29 03:09:00;;;;;;;31.92;10.65;;;;;;;;;;5108852;28;20343;-62
2022/11/29 03:11:35;;;;;;;18.77;9.15;;;;;;;;;;5123230;28;20031;-63
2022/11/29 03:14:13;;;;;;;36.40;10.43;;;;;;;;;;5125139;28;20048;-61
2022/11/29 03:16:42;;;;;;;34.33;10.80;;;;;;;;;;5109722;28;20028;-62
2022/11/29 03:19:22;;;;;;;35.92;10.00;;;;;;;;;;5119512;28;20577;-61
2022/11/29 03:21:55;;;;;;;15.23;8.38;;;;;;;;;;5116013;28;20036;-62
2022/11/29 03:24:44;;;;;;;21.63;9.00;;;;;;;;;;5119328;28;20547;-61
2022/11/29 03:27:12;;;;;;;26.05;8.50;;;;;;;;;;5120564;28;20631;-62
2022/11/29 03:29:48;;;;;;;32.95;10.23;;;;;;;;;;5104578;28;20093;-61
2022/11/29 03:32:22;;;;;;;56.30;10.80;;;;;;;;;;5107277;28;20072;-61
2022/11/29 03:34:55;;;;;;;53.22;11.68;;;;;;;;;;5120875;28;20039;-61
2022/11/29 03:37:25;;;;;;;13.98;8.27;;;;;;;;;;5115905;28;20046;-62
2022/11/29 03:39:56;;;;;;;16.88;8.43;;;;;;;;;;5116944;28;20046;-61
2022/11/29 03:42:41;;;;;;;53.15;12.60;;;;;;;;;;5104524;28;20040;-62
2022/11/29 03:45:10;;;;;;;66.63;11.48;;;;;;;;;;5109111;28;20393;-61
2022/11/29 03:47:40;;;;;;;76.60;12.13;;;;;;;;;;5108995;28;20039;-61
2022/11/29 03:50:10;;;;;;;42.45;9.65;;;;;;;;;;5124246;28;20496;-61
2022/11/29 03:52:48;;;;;;;30.95;9.25;;;;;;;;;;5119543;28;20035;-62
2022/11/29 03:55:19;;;;;;;30.02;7.63;;;;;;;;;;5119607;28;20031;-62
2022/11/29 03:58:04;;;;;;;8.90;6.57;;;;;;;;;;5117668;27;20038;-62
2022/11/29 04:00:44;;;;;;;19.90;8.40;;;;;;;;;;5117531;27;20043;-63
2022/11/29 04:03:32;;;;;;;11.45;8.00;;;;;;;;;;5125839;27;20049;-62
2022/11/29 04:06:10;;;;;;;25.30;8.98;;;;;;;;;;5123327;27;20050;-62
2022/11/29 04:08:55;;;;;;;20.90;7.63;;;;;;;;;;5125910;27;20127;-62
2022/11/29 04:11:30;;;;;;;13.55;7.43;;;;;;;;;;5127574;27;20042;-62
2022/11/29 04:13:59;;;;;;;8.45;6.50;;;;;;;;;;5120793;27;20568;-62
2022/11/29 04:16:25;;;;;;;11.65;7.25;;;;;;;;;;5108665;27;20043;-62
2022/11/29 04:19:15;;;;;;;20.10;7.65;;;;;;;;;;5099677;27;20118;-62
2022/11/29 04:21:41;;;;;;;9.57;6.65;;;;;;;;;;5126250;27;20742;-62
2022/11/29 04:24:26;;;;;;;16.27;6.82;;;;;;;;;;5129254;27;20039;-62
2022/11/29 04:27:06;;;;;;;12.98;6.80;;;;;;;;;;5127239;27;20767;-62
2022/11/29 04:29:35;;;;;;;22.85;7.80;;;;;;;;;;5101668;27;20036;-62
2022/11/29 04:32:04;;;;;;;53.90;9.23;;;;;;;;;;5124275;27;20043;-63
2022/11/29 04:34:37;;;;;;;22.80;8.02;;;;;;;;;;5129022;27;20051;-62
2022/11/29 04:37:18;;;;;;;30.08;8.25;;;;;;;;;;5107711;27;20035;-62
2022/11/29 04:39:47;;;;;;;14.02;6.75;;;;;;;;;;5108847;27;20453;-62
2022/11/29 04:42:23;;;;;;;9.02;6.03;;;;;;;;;;5131286;27;20295;-62
2022/11/29 04:45:00;;;;;;;9.18;7.00;;;;;;;;;;5124850;27;20353;-62
2022/11/29 04:47:35;;;;;;;11.95;7.32;;;;;;;;;;5120525;27;20027;-62
2022/11/29 04:50:08;;;;;;;12.57;7.57;;;;;;;;;;5118607;27;20043;-62
2022/11/29 04:52:52;;;;;;;13.10;7.00;;;;;;;;;;5117060;27;20031;-62
2022/11/29 04:55:31;;;;;;;23.60;6.90;;;;;;;;;;5129142;27;20039;-62
2022/11/29 04:58:06;;;;;;;25.10;8.43;;;;;;;;;;5111484;27;20396;-62
2022/11/29 05:00:39;;;;;;;19.67;8.10;;;;;;;;;;5122706;27;20407;-62
2022/11/29 05:03:13;;;;;;;12.65;7.28;;;;;;;;;;5124608;27;20031;-62
2022/11/29 05:05:57;;;;;;;10.32;6.90;;;;;;;;;;5123775;27;20027;-62
2022/11/29 05:08:35;;;;;;;11.73;7.10;;;;;;;;;;5124821;27;20111;-62
2022/11/29 05:11:01;;;;;;;14.18;7.15;;;;;;;;;;5128868;27;20484;-62
2022/11/29 05:13:45;;;;;;;13.43;8.80;;;;;;;;;;5111563;27;20064;-62
2022/11/29 05:16:19;;;;;;;11.70;7.25;;;;;;;;;;5104053;28;20052;-62
2022/11/29 05:18:57;;;;;;;13.25;7.30;;;;;;;;;;5119972;27;20111;-62
2022/11/29 05:21:38;;;;;;;13.25;7.45;;;;;;;;;;5114306;27;20043;-62
2022/11/29 05:24:16;;;;;;;9.82;6.90;;;;;;;;;;5126180;27;20039;-63
2022/11/29 05:27:06;;;;;;;11.38;8.02;;;;;;;;;;5123928;27;20039;-62
2022/11/29 05:29:49;;;;;;;9.90;7.35;;;;;;;;;;5095984;27;20058;-62
2022/11/29 05:32:54;;;;;;;12.20;8.82;;;;;;;;;;5093406;27;20039;-62
2022/11/29 05:35:20;;;;;;;10.32;7.18;;;;;;;;;;5019960;28;20041;-62
2022/11/29 05:37:59;;;;;;;12.25;7.63;;;;;;;;;;5025486;28;20037;-62
2022/11/29 05:40:40;;;;;;;10.07;8.30;;;;;;;;;;5078499;27;20071;-62
2022/11/29 05:43:06;;;;;;;13.52;9.50;;;;;;;;;;5115354;27;20082;-62
2022/11/29 05:45:52;;;;;;;15.85;9.25;;;;;;;;;;5123649;27;20035;-62
2022/11/29 05:48:24;;;;;;;13.27;9.00;;;;;;;;;;5110078;27;20513;-62
2022/11/29 05:50:50;;;;;;;13.98;9.25;;;;;;;;;;5124312;27;20044;-62
2022/11/29 05:53:48;;;;;;;13.52;9.45;;;;;;;;;;5124053;27;20027;-62
2022/11/29 05:56:18;;;;;;;13.35;8.23;;;;;;;;;;5063981;27;20048;-62
2022/11/29 05:58:50;;;;;;;17.08;9.63;;;;;;;;;;5119357;27;20039;-62
2022/11/29 06:01:19;;;;;;;15.25;8.95;;;;;;;;;;5118468;27;20532;-62
2022/11/29 06:03:53;;;;;;;11.25;8.43;;;;;;;;;;5107223;27;20054;-62
2022/11/29 06:06:28;;;;;;;26.77;9.95;;;;;;;;;;5122117;27;20042;-62
2022/11/29 06:08:57;;;;;;;12.80;8.55;;;;;;;;;;5124981;27;20035;-62
2022/11/29 06:11:28;;;;;;;16.42;9.02;;;;;;;;;;5122327;27;20397;-62
2022/11/29 06:14:04;;;;;;;26.25;9.32;;;;;;;;;;5118111;27;20039;-62
2022/11/29 06:16:37;;;;;;;23.48;9.68;;;;;;;;;;5118920;27;20539;-62
2022/11/29 06:19:22;;;;;;;18.25;9.68;;;;;;;;;;5114169;27;20041;-62
2022/11/29 06:21:54;;;;;;;17.52;9.60;;;;;;;;;;5114895;27;20070;-62
2022/11/29 06:24:29;;;;;;;14.68;8.85;;;;;;;;;;5126819;27;20404;-62
2022/11/29 06:27:04;;;;;;;11.80;8.40;;;;;;;;;;5100876;27;20092;-62
2022/11/29 06:29:42;;;;;;;12.45;8.60;;;;;;;;;;5118931;27;20051;-62
2022/11/29 06:32:27;;;;;;;12.90;9.30;;;;;;;;;;5120014;27;20038;-62
2022/11/29 06:34:59;;;;;;;13.57;8.38;;;;;;;;;;5121951;27;20047;-62
2022/11/29 06:37:28;;;;;;;15.65;9.05;;;;;;;;;;5094623;28;20130;-62
2022/11/29 06:39:55;;;;;;;16.02;9.45;;;;;;;;;;5117504;27;20047;-62
2022/11/29 06:42:21;;;;;;;15.20;9.25;;;;;;;;;;5103981;27;20071;-62
2022/11/29 06:44:47;;;;;;;12.95;8.93;;;;;;;;;;5119050;27;20436;-62
2022/11/29 06:47:32;;;;;;;12.05;8.30;;;;;;;;;;5111061;27;20028;-62
2022/11/29 06:50:02;;;;;;;16.88;8.90;;;;;;;;;;5117903;28;20202;-62
2022/11/29 06:52:28;;;;;;;15.45;8.68;;;;;;;;;;5119742;28;20031;-62
2022/11/29 06:55:03;;;;;;;12.43;8.30;;;;;;;;;;5121201;28;20439;-62
2022/11/29 06:57:29;;;;;;;14.70;8.98;;;;;;;;;;5107408;28;20035;-62
2022/11/29 06:59:58;;;;;;;16.02;9.75;;;;;;;;;;5118311;28;20110;-62
2022/11/29 07:02:24;;;;;;;15.63;8.93;;;;;;;;;;5084254;28;20526;-62
2022/11/29 07:05:09;;;;;;;18.17;9.98;;;;;;;;;;5092796;28;20273;-62
2022/11/29 07:07:36;;;;;;;12.00;8.93;;;;;;;;;;5110543;28;20093;-62
2022/11/29 07:10:03;;;;;;;13.27;9.00;;;;;;;;;;5116166;28;20031;-62
2022/11/29 07:12:30;;;;;;;13.50;9.43;;;;;;;;;;5116374;28;20481;-62
2022/11/29 07:14:57;;;;;;;12.73;9.52;;;;;;;;;;5091322;28;20500;-62
2022/11/29 07:17:42;;;;;;;18.60;9.52;;;;;;;;;;5117491;28;20381;-61
2022/11/29 07:20:15;;;;;;;16.63;9.23;;;;;;;;;;5110514;28;20100;-63
2022/11/29 07:22:47;;;;;;;12.65;9.10;;;;;;;;;;5118487;28;20071;-62
2022/11/29 07:25:16;;;;;;;14.15;8.50;;;;;;;;;;5096267;28;20587;-62
2022/11/29 07:27:51;;;;;;;14.98;10.35;;;;;;;;;;5109609;28;20062;-62
2022/11/29 07:30:21;;;;;;;17.20;9.48;;;;;;;;;;5116235;28;20058;-62
2022/11/29 07:33:16;;;;;;;12.65;8.75;;;;;;;;;;5111298;27;20083;-62
2022/11/29 07:35:42;;;;;;;14.23;9.38;;;;;;;;;;5104694;27;20532;-62
2022/11/29 07:38:11;;;;;;;16.27;9.70;;;;;;;;;;5115009;27;20485;-62
2022/11/29 07:40:43;;;;;;;10.85;8.98;;;;;;;;;;5118006;27;20038;-62
2022/11/29 07:43:12;;;;;;;15.43;8.68;;;;;;;;;;5121098;27;20122;-64
2022/11/29 07:45:38;;;;;;;17.10;9.75;;;;;;;;;;5117391;27;20039;-63
2022/11/29 07:48:05;;;;;;;14.02;9.35;;;;;;;;;;5128636;27;20489;-62
2022/11/29 07:50:32;;;;;;;16.08;8.55;;;;;;;;;;5126259;27;20114;-62
2022/11/29 07:52:58;;;;;;;14.65;8.48;;;;;;;;;;5129851;27;20039;-61
2022/11/29 07:55:25;;;;;;;11.98;8.15;;;;;;;;;;5103654;27;20488;-62
2022/11/29 07:57:52;;;;;;;12.13;7.45;;;;;;;;;;5107790;27;20106;-62
2022/11/29 08:00:19;;;;;;;12.35;7.40;;;;;;;;;;5128318;27;20046;-62
2022/11/29 08:02:45;;;;;;;16.55;8.52;;;;;;;;;;5116178;27;20096;-62
2022/11/29 08:05:11;;;;;;;14.70;8.13;;;;;;;;;;5111425;27;20095;-62
2022/11/29 08:07:38;;;;;;;14.02;9.70;;;;;;;;;;5120573;27;20501;-62
2022/11/29 08:10:06;;;;;;;13.43;7.40;;;;;;;;;;5112641;27;20035;-62
2022/11/29 08:12:32;;;;;;;17.40;9.18;;;;;;;;;;5121699;27;20031;-63
2022/11/29 08:14:58;;;;;;;15.65;8.60;;;;;;;;;;5121963;27;20393;-62
2022/11/29 08:17:24;;;;;;;18.35;9.00;;;;;;;;;;5104731;27;20176;-62
2022/11/29 08:19:51;;;;;;;19.80;9.20;;;;;;;;;;5108111;27;20162;-62
2022/11/29 08:22:17;;;;;;;17.08;7.72;;;;;;;;;;5123343;27;20382;-62
2022/11/29 08:24:43;;;;;;;16.55;8.95;;;;;;;;;;5116750;27;20043;-62
2022/11/29 08:27:09;;;;;;;24.35;9.38;;;;;;;;;;5103922;27;20051;-62
2022/11/29 08:29:36;;;;;;;17.13;7.82;;;;;;;;;;5121286;27;20043;-62
2022/11/29 08:32:02;;;;;;;19.65;9.38;;;;;;;;;;5117634;27;20036;-62
2022/11/29 08:34:28;;;;;;;15.55;9.93;;;;;;;;;;5118941;27;20043;-62
2022/11/29 08:36:55;;;;;;;12.68;8.80;;;;;;;;;;5119909;27;20058;-62
2022/11/29 08:39:22;;;;;;;16.48;8.88;;;;;;;;;;5122605;27;20031;-62
2022/11/29 08:41:51;;;;;;;17.55;8.60;;;;;;;;;;5127406;27;20209;-62
2022/11/29 08:44:17;;;;;;;18.48;9.23;;;;;;;;;;5119527;27;20038;-62
2022/11/29 08:49:28;;;;;;;16.52;8.32;;;;;;;;;;5110739;27;20043;-62
2022/11/29 08:53:40;;;;;;;17.90;7.72;;;;;;;;;;5124986;27;20043;-62
2022/11/29 08:54:40;;;;;;;17.20;9.32;;;;;;;;;;5105611;28;20132;-62
2022/11/29 08:57:06;;;;;;;25.48;10.63;;;;;;;;;;5109805;27;20164;-62
2022/11/29 08:59:33;;;;;;;15.40;8.32;;;;;;;;;;5118051;27;20096;-62
2022/11/29 09:01:59;;;;;;;24.65;9.70;;;;;;;;;;5121998;27;20035;-62
2022/11/29 09:04:25;;;;;;;14.13;8.30;;;;;;;;;;5123775;27;20499;-62
2022/11/29 09:06:51;;;;;;;21.90;9.27;;;;;;;;;;5123625;27;20043;-62
2022/11/29 09:09:17;;;;;;;13.73;7.90;;;;;;;;;;5129628;27;20066;-62
2022/11/29 09:11:44;;;;;;;16.58;8.10;;;;;;;;;;5126592;27;20050;-62
2022/11/29 09:14:12;;;;;;;16.00;8.18;;;;;;;;;;5119896;27;20113;-63
2022/11/29 09:16:38;;;;;;;24.38;9.75;;;;;;;;;;5111862;27;20549;-63
2022/11/29 09:19:05;;;;;;;21.38;8.63;;;;;;;;;;5101427;28;20127;-62
2022/11/29 09:21:33;;;;;;;16.45;7.75;;;;;;;;;;5109845;27;20042;-62
2022/11/29 09:24:00;;;;;;;18.52;8.52;;;;;;;;;;5118289;27;20039;-62
2022/11/29 09:26:28;;;;;;;13.85;9.52;;;;;;;;;;5117606;27;20451;-62
2022/11/29 09:28:54;;;;;;;12.95;6.78;;;;;;;;;;5115539;27;20421;-62
2022/11/29 09:31:21;;;;;;;19.65;8.38;;;;;;;;;;5120744;27;20403;-62
2022/11/29 09:33:47;;;;;;;19.42;9.70;;;;;;;;;;5126142;27;20031;-62
2022/11/29 09:36:14;;;;;;;16.10;8.63;;;;;;;;;;5117465;27;20082;-62
2022/11/29 09:38:40;;;;;;;19.17;8.73;;;;;;;;;;5113348;27;20407;-62
2022/11/29 09:41:32;;;;;;;23.50;8.70;;;;;;;;;;5107564;27;20047;-62
2022/11/29 09:44:01;;;;;;;18.50;6.93;;;;;;;;;;5120509;27;20123;-62
2022/11/29 09:46:38;;;;;;;16.95;7.80;;;;;;;;;;5121111;27;20047;-63
2022/11/29 09:49:16;;;;;;;18.63;7.88;;;;;;;;;;5115019;27;20070;-63
2022/11/29 09:51:58;;;;;;;13.82;7.85;;;;;;;;;;5106682;27;20500;-63
2022/11/29 09:54:24;;;;;;;23.90;8.25;;;;;;;;;;5128294;27;20468;-62
2022/11/29 09:56:51;;;;;;;21.25;7.47;;;;;;;;;;5121235;27;20115;-62
2022/11/29 09:59:24;;;;;;;25.55;9.07;;;;;;;;;;5117108;27;20142;-62
2022/11/29 10:02:04;;;;;;;23.40;7.07;;;;;;;;;;5105804;27;20042;-62
2022/11/29 10:04:33;;;;;;;24.75;8.00;;;;;;;;;;5122835;27;20054;-62
2022/11/29 10:07:20;;;;;;;18.35;7.40;;;;;;;;;;5114208;27;20035;-62
2022/11/29 10:09:46;;;;;;;18.88;8.90;;;;;;;;;;5112019;27;20038;-62
2022/11/29 10:12:31;;;;;;;22.30;8.98;;;;;;;;;;5127767;27;20056;-62
2022/11/29 10:15:02;;;;;;;24.55;8.82;;;;;;;;;;5127082;27;20062;-63
2022/11/29 10:17:47;;;;;;;20.88;8.35;;;;;;;;;;5090461;27;20046;-62
2022/11/29 10:20:24;;;;;;;18.95;8.52;;;;;;;;;;5123076;27;20036;-62
2022/11/29 10:22:54;;;;;;;22.25;8.77;;;;;;;;;;5114380;27;20035;-62
2022/11/29 10:25:30;;;;;;;20.20;9.48;;;;;;;;;;5128011;27;20116;-62
2022/11/29 10:27:56;;;;;;;21.25;9.20;;;;;;;;;;5117891;27;20499;-62
2022/11/29 10:30:22;;;;;;;18.52;7.65;;;;;;;;;;5122482;27;20034;-63
2022/11/29 10:32:52;;;;;;;20.08;9.10;;;;;;;;;;5123117;27;20036;-63
2022/11/29 10:35:19;;;;;;;19.65;8.80;;;;;;;;;;5110152;27;20504;-63
2022/11/29 10:37:46;;;;;;;23.65;8.75;;;;;;;;;;5116190;27;20074;-63
2022/11/29 10:40:20;;;;;;;22.38;9.23;;;;;;;;;;5103030;28;20043;-63
2022/11/29 10:42:51;;;;;;;17.30;8.02;;;;;;;;;;5114382;27;20088;-63
2022/11/29 10:45:32;;;;;;;14.10;6.93;;;;;;;;;;5122005;27;20042;-63
2022/11/29 10:48:03;;;;;;;22.90;8.15;;;6.40;99.90;;;;;;5126132;27;20070;-62
2022/11/29 10:50:32;;;;;;;30.15;10.15;;;8.20;99.90;;;;;;5114627;28;20028;-63
2022/11/29 10:53:08;;;;;;;24.45;8.05;;;8.20;99.90;;;;;;5115720;28;20039;-62
2022/11/29 10:55:57;;;;;;;15.65;8.05;;;8.20;99.90;;;;;;5116226;28;20467;-62
2022/11/29 10:58:25;;;;;;;24.50;8.27;;;8.30;99.90;;;;;;5117523;28;20035;-63
2022/11/29 11:00:59;;;;;;;19.70;8.18;;;;;;;;;;5118671;28;20043;-63
2022/11/29 11:03:27;;;;;;;26.88;9.63;;;;;;;;;;5104664;28;20039;-62
2022/11/29 11:05:58;;;;;;;24.25;10.07;;;;;;;;;;5115090;27;20548;-63
2022/11/29 11:08:25;;;;;;;23.38;9.98;;;;;;;;;;5110783;27;20547;-63
2022/11/29 11:10:54;;;;;;;19.58;9.18;;;8.30;99.90;;;;;;5133172;27;20073;-62
2022/11/29 11:13:23;;;;;;;22.70;8.27;;;8.50;99.90;;;;;;5118891;27;20038;-63
2022/11/29 11:15:49;;;;;;;20.35;10.05;;;;;;;;;;5100720;27;20274;-63
2022/11/29 11:18:20;;;;;;;18.00;9.48;;;;;;;;;;5121341;27;20039;-63
2022/11/29 11:20:52;;;;;;;25.50;12.25;;;8.50;99.90;;;;;;5107019;28;20039;-63
2022/11/29 11:23:32;;;;;;;20.20;10.55;;;;;;;;;;5119053;27;20177;-63
2022/11/29 11:26:00;;;;;;;26.00;12.50;;;;;;;;;;5111454;27;20051;-63
2022/11/29 11:28:28;;;;;;;24.65;10.82;;;;;;;;;;5117639;27;20468;-63
2022/11/29 11:30:54;;;;;;;17.73;12.45;;;;;;;;;;5118006;27;20043;-63
2022/11/29 11:33:23;;;;;;;25.02;10.40;;;;;;;;;;5110107;27;20160;-63
2022/11/29 11:36:05;;;;;;;20.45;12.10;;;;;;;;;;5112867;27;20384;-63
2022/11/29 11:38:32;;;;;;;24.33;12.55;;;;;;;;;;5115818;27;20047;-63
2022/11/29 11:42:35;;;;;;;22.65;12.38;;;;;;;;;;5122396;27;20125;-63
2022/11/29 11:44:31;;;;;;;28.70;12.93;;;;;;;;;;5107330;27;20051;-63
2022/11/29 11:46:58;;;;;;;23.63;12.85;;;;;;;;;;5121390;27;20051;-63
2022/11/29 11:49:47;;;;;;;20.05;12.98;;;8.70;99.90;;;;;;5109510;28;20032;-63
2022/11/29 11:52:22;;;;;;;20.48;10.20;;;11.10;99.90;;;;;;5119552;27;20039;-63
2022/11/29 11:54:56;;;;;;;20.23;10.75;;;12.00;99.90;;;;;;5122897;27;20391;-63
2022/11/29 11:57:23;;;;;;;17.27;9.00;;;;;;;;;;5129732;27;21698;-63
2022/11/29 11:59:50;;;;;;;11.27;7.97;;;;;;;;;;5131853;27;20108;-63
2022/11/29 12:02:35;;;;;;;11.15;7.65;;;;;;;;;;5106002;27;20531;-63
2022/11/29 12:05:02;;;;;;;14.30;8.70;;;;;;;;;;5123648;27;20068;-63
2022/11/29 12:07:32;;;;;;;13.07;8.20;;;;;;;;;;5121824;27;20070;-63
2022/11/29 12:10:06;;;;;;;10.82;7.25;;;;;;;;;;5124069;27;20074;-64
2022/11/29 12:12:36;;;;;;;12.75;8.70;;;;;;;;;;5097289;27;20043;-63
2022/11/29 12:15:31;;;;;;;10.68;7.82;;;;;;;;;;5117807;27;20415;-64
2022/11/29 12:18:01;;;;;;;13.35;8.23;;;;;;;;;;5099363;28;20051;-63
2022/11/29 12:20:30;;;;;;;11.27;7.55;;;;;;;;;;5121488;27;20463;-63
2022/11/29 12:23:02;;;;;;;11.13;7.85;;;;;;;;;;5126495;27;20043;-62
2022/11/29 12:25:39;;;;;;;10.05;7.05;;;;;;;;;;5121691;27;20043;-63
2022/11/29 12:28:10;;;;;;;12.05;7.57;;;;;;;;;;5104280;27;20508;-63
2022/11/29 12:30:36;;;;;;;11.35;7.43;;;;;;;;;;5128870;27;20046;-63
2022/11/29 12:33:13;;;;;;;12.18;8.25;;;;;;;;;;5130110;27;20141;-63
2022/11/29 12:35:40;;;;;;;10.88;6.68;;;;;;;;;;5124675;27;20486;-63
2022/11/29 12:38:06;;;;;;;9.85;7.22;;;;;;;;;;5129775;27;20122;-63
2022/11/29 12:40:37;;;;;;;11.18;7.53;;;;;;;;;;5124555;27;20496;-63
2022/11/29 12:43:28;;;;;;;10.98;7.25;;;;;;;;;;5120839;27;20043;-63
2022/11/29 12:46:07;;;;;;;12.43;7.45;;;;;;;;;;5110906;27;20497;-63
2022/11/29 12:48:44;;;;;;;11.95;7.78;;;;;;;;;;5106064;27;20052;-64
2022/11/29 12:51:29;;;;;;;10.05;7.20;;;;;;;;;;5108232;28;20118;-63
2022/11/29 12:54:10;;;;;;;10.93;7.47;;;;;;;;;;5122186;27;20402;-63
2022/11/29 12:56:40;;;;;;;9.70;7.53;;;;;;;;;;5128002;27;20319;-63
2022/11/29 12:59:07;;;;;;;9.13;7.88;;;;;;;;;;5125447;27;20075;-63
2022/11/29 13:01:33;;;;;;;12.90;7.75;;;;;;;;;;5126091;27;20054;-63
2022/11/29 13:04:05;;;;;;;12.52;7.53;;;;;;;;;;5127083;27;20042;-63
2022/11/29 13:06:36;;;;;;;10.47;7.53;;;;;;;;;;5111965;27;20031;-63
2022/11/29 13:09:08;;;;;;;9.70;7.45;;;;;;;;;;5126652;27;20088;-63
2022/11/29 13:11:37;;;;;;;9.85;7.78;;;;;;;;;;5127018;27;20250;-65
2022/11/29 13:14:06;;;;;;;13.25;7.68;;;;;;;;;;5119567;27;20130;-63
2022/11/29 13:16:44;;;;;;;9.88;7.82;;;;;;;;;;5124982;27;20042;-63
2022/11/29 13:19:23;;;;;;;12.48;6.55;;;;;;;;;;5122757;27;20039;-63
2022/11/29 13:22:00;;;;;;;8.05;6.05;;;;;;;;;;5119935;27;20038;-63
2022/11/29 13:24:39;;;;;;;8.32;5.57;;;12.70;99.90;;;;;;5111494;27;20047;-63
2022/11/29 13:27:06;;;;;;;7.47;4.72;;;10.10;99.90;;;;;;5116917;27;20048;-64
2022/11/29 13:29:33;;;;;;;6.90;4.60;;;;;;;;;;5110305;28;20343;-63
2022/11/29 13:31:59;;;;;;;7.20;4.95;;;;;;;;;;5104066;28;20093;-63
2022/11/29 13:34:30;;;;;;;11.07;5.30;;;;;;;;;;5124413;27;20031;-63
2022/11/29 13:36:56;;;;;;;6.93;5.03;;;;;;;;;;5126393;27;20035;-63
2022/11/29 13:39:41;;;;;;;7.57;4.78;;;;;;;;;;5094388;27;20396;-63
2022/11/29 13:42:15;;;;;;;7.03;5.43;;;;;;;;;;5122085;27;20032;-63
2022/11/29 13:45:18;;;;;;;7.30;4.85;;;10.00;99.90;;;;;;5111514;27;20050;-63
2022/11/29 13:47:52;;;;;;;8.30;5.20;;;;;;;;;;5101093;28;20161;-63
2022/11/29 13:50:38;;;;;;;7.20;5.07;;;;;;;;;;5112946;27;20043;-63
2022/11/29 13:53:19;;;;;;;8.25;5.53;;;;;;;;;;5121444;27;20087;-63
2022/11/29 13:55:45;;;;;;;8.35;4.60;;;;;;;;;;5117081;27;20035;-63
2022/11/29 13:58:14;;;;;;;7.13;5.05;;;;;;;;;;5114231;27;20430;-63
2022/11/29 14:00:43;;;;;;;8.60;4.80;;;;;;;;;;5114687;27;20035;-63
2022/11/29 14:03:18;;;;;;;6.88;5.07;;;;;;;;;;5105442;27;20035;-63
2022/11/29 14:06:04;;;;;;;5.95;3.80;;;;;;;;;;5114477;27;20093;-63
2022/11/29 14:08:38;;;;;;;5.25;3.95;;;;;;;;;;5113912;27;20381;-63
2022/11/29 14:11:08;;;;;;;6.13;4.45;;;;;;;;;;5128141;27;20099;-63
2022/11/29 14:13:45;;;;;;;6.55;5.00;;;;;;;;;;5106917;27;20067;-63
2022/11/29 14:16:20;;;;;;;9.20;6.18;;;;;;;;;;5112965;27;20091;-63
2022/11/29 14:18:46;;;;;;;7.93;5.63;;;;;;;;;;5113936;27;20039;-63
2022/11/29 14:21:12;;;;;;;10.93;6.82;;;9.80;99.90;;;;;;5118494;27;20100;-63
2022/11/29 14:23:42;;;;;;;9.13;5.30;;;9.50;99.90;;;;;;5109705;27;20039;-63
2022/11/29 14:26:08;;;;;;;6.75;5.40;;;9.50;99.90;;;;;;5102778;27;20764;-63
2022/11/29 14:28:38;;;;;;;5.88;4.78;;;9.50;99.90;;;;;;5091557;27;20035;-63
2022/11/29 14:31:08;;;;;;;5.70;4.97;;;9.50;99.90;;;;;;5097163;27;20046;-63
2022/11/29 14:33:53;;;;;;;5.30;4.80;;;9.50;99.90;;;;;;5100021;28;20374;-63
2022/11/29 14:36:45;;;;;;;6.50;5.32;;;9.40;99.90;;;;;;5110003;27;20129;-63
2022/11/29 14:39:32;;;;;;;7.95;4.70;;;9.40;99.90;;;;;;5117042;27;20062;-63
2022/11/29 14:42:15;;;;;;;6.18;4.93;;;;;;;;;;5106150;27;20668;-63